Dunlap Lake, Illinois
Current Conditions -  °F | °C
As of 7:50 AM on Saturday 25 Oct 2014 (Local Time) from KALN Reporting Station
Haze Haze  
Wind Chill: 12°   Ceiling: Unl
Heat Index: 12°   Visibility: 5mi
Dew Point: 11°   Wind: 6mph
Humidity: 94%   Direction: 260°W
Pressure: 30.03"   Gusts: NA
Location:  38.8031°N, 89.9742°W
Report Text: KALN 251250Z 26005KT 5SM BR SKC 12/11 A3003
Loading
Personal Weather Stations






























Interactive Weather Map
Tropical Storm Tracking
New forecast layout! Learn more

10-Day Weather Forecast

Advertisements
Track Severe Weather on mobile